Viborg, SD (57070)

2:20 PM CDT on August 29, 2014 (GMT -0500)
Turkey Ridge | Change Station
CLOSE
Current Station
Personal Weather Station
Location: Freeman, SD
Elevation: 1644 ft
Nearby Weather Stations
Active Advisory: Special Statement Active Notice: Public Information Statement

Elev 1644 ft 43.26 °N, 97.36 °W | Updated 38 seconds ago

Overcast
Overcast
75.6 °F
Feels Like 76 °F
N
3.0
Wind Variable Wind from SSW
Gusts 3.0 mph

Today
High -- | Low -- °F
--% Chance of Precip.
Yesterday
High -- | Low -- °F
Precip. -- in
6:49 AM 8:08 PM
Waxing Crescent, 16% visible
Pressure 29.78 in
Visibility 10.0 miles
Clouds Overcast 6000 ft
Heat Index 76 °F
Dew Point 71 °F
Humidity 85%
Rainfall 0.00 in
Snow Depth Not available.
UV 3 out of 12
Pollen 8.60 out of 12
Air Quality Not available.
Flu Activity Not available.
METAR KYKN 291915Z AUTO 00000KT 10SM OVC060 24/19 A2978 RMK AO1

More Conditions Fewer Conditions

Pressure 29.78 in
Visibility 10.0 miles
Clouds Overcast 6000 ft
Heat Index 76 °F
Dew Point 71 °F
Humidity 85%
Rainfall 0.00 in
Snow Depth Not available.
UV 3 out of 12
Pollen 8.60 out of 12
Air Quality Not available.
Flu Activity Not available.
METAR KYKN 291915Z AUTO 00000KT 10SM OVC060 24/19 A2978 RMK AO1

More Conditions Fewer Conditions

10-Day Weather Forecast

Almanac

Astronomy

Aug. 29, 2014 Rise Set
Actual Time 6:49 AM CDT 8:08 PM CDT
Civil Twilight 6:19 AM CDT 8:37 PM CDT
Nautical Twilight 5:44 AM CDT 9:13 PM CDT
Astronomical Twilight 5:06 AM CDT 9:50 PM CDT
Moon 10:47 AM CDT 9:58 PM CDT
Length of Visible Light 14h 18m
Length of Day
13h 19m
Tomorrow will be 2m 48s shorter.
Waxing Crescent, 16% of the Moon is Illuminated
Today
Waxing Crescent
Sep 2
First Quarter
Sep 8
Full
Sep 15
Last Quarter
Sep 24
New

Today's Extremes

State Highs State Lows

Community

WunderPhotos

Upload Photos

1,748,315 photos uploaded!

Nearby

Snow Depth

Station Depth Elevation
Blind Park 0 in 6890 ft

Earthquake Activity

City Distance Mag. Time & Date
No recent earthquake activity has been reported nearby.
Minimum magnitude displayed is 2.5.

Coastal Water Temperatures

Place Temperature
No Stations Reporting

Nearby Weather Stations